createdAt,value
2018-08-19T00:00:10.738Z,0.00
2018-08-19T00:01:10.717Z,0.00
2018-08-19T00:02:10.680Z,0.00
2018-08-19T00:03:10.630Z,0.00
2018-08-19T00:04:10.615Z,0.00
2018-08-19T00:05:10.573Z,0.00
2018-08-19T00:06:10.549Z,0.00
2018-08-19T00:07:10.511Z,0.00
2018-08-19T00:08:10.470Z,0.00
2018-08-19T00:09:10.432Z,0.00
2018-08-19T00:10:10.396Z,0.00
2018-08-19T00:11:10.360Z,0.00
2018-08-19T00:12:10.362Z,0.00
2018-08-19T00:13:10.318Z,0.00
2018-08-19T00:14:10.277Z,0.00
2018-08-19T00:15:10.239Z,0.00
2018-08-19T00:16:10.203Z,0.00
2018-08-19T00:17:10.155Z,0.00
2018-08-19T00:18:10.122Z,0.00
2018-08-19T00:19:10.093Z,0.00
2018-08-19T00:20:10.055Z,0.00
2018-08-19T00:21:10.006Z,0.00
2018-08-19T00:22:09.979Z,0.00
2018-08-19T00:23:09.959Z,0.00
2018-08-19T00:24:09.923Z,0.00
2018-08-19T00:25:09.886Z,0.00
2018-08-19T00:26:09.896Z,0.00
2018-08-19T00:27:09.817Z,0.00
2018-08-19T00:28:09.784Z,0.00
2018-08-19T00:29:09.750Z,0.00
2018-08-19T00:30:09.729Z,0.00
2018-08-19T00:31:09.670Z,0.00
2018-08-19T00:32:09.636Z,0.00
2018-08-19T00:33:09.609Z,0.00
2018-08-19T00:34:09.566Z,0.00
2018-08-19T00:35:09.529Z,0.00
2018-08-19T00:36:09.504Z,0.00
2018-08-19T00:37:09.464Z,0.00
2018-08-19T00:38:09.439Z,0.00
2018-08-19T00:39:09.401Z,0.00
2018-08-19T00:40:09.391Z,0.00
2018-08-19T00:41:09.328Z,0.00
2018-08-19T00:42:09.313Z,0.00
2018-08-19T00:43:09.251Z,0.00
2018-08-19T00:44:09.216Z,0.00
2018-08-19T00:45:09.185Z,0.00
2018-08-19T00:46:09.148Z,0.00
2018-08-19T00:47:09.114Z,0.00
2018-08-19T00:48:09.081Z,0.00
2018-08-19T00:49:09.054Z,0.00
2018-08-19T00:50:09.025Z,0.00
2018-08-19T00:51:08.975Z,0.00
2018-08-19T00:52:08.962Z,0.00
2018-08-19T00:53:08.911Z,0.00
2018-08-19T00:54:08.884Z,0.00
2018-08-19T00:55:08.846Z,0.00
2018-08-19T00:56:08.804Z,0.00
2018-08-19T00:57:08.775Z,0.00
2018-08-19T00:58:08.733Z,0.00
2018-08-19T00:59:08.702Z,0.00
2018-08-19T01:00:08.677Z,0.00
2018-08-19T01:01:08.623Z,0.00
2018-08-19T01:02:08.603Z,0.00
2018-08-19T01:03:08.555Z,0.00
2018-08-19T01:04:08.532Z,0.00
2018-08-19T01:05:08.496Z,0.00
2018-08-19T01:06:08.458Z,0.00
2018-08-19T01:07:08.413Z,0.00
2018-08-19T01:08:08.385Z,0.00
2018-08-19T01:09:08.371Z,0.00
2018-08-19T01:10:08.319Z,0.00
2018-08-19T01:11:08.278Z,0.00
2018-08-19T01:12:08.239Z,0.00
2018-08-19T01:13:08.218Z,0.00
2018-08-19T01:14:08.174Z,0.00
2018-08-19T01:15:08.129Z,0.00
2018-08-19T01:16:08.109Z,0.00
2018-08-19T01:17:08.069Z,0.00
2018-08-19T01:18:08.029Z,0.00
2018-08-19T01:19:08.005Z,0.00
2018-08-19T01:20:07.953Z,0.00
2018-08-19T01:21:07.919Z,0.00
2018-08-19T01:22:07.887Z,0.00
2018-08-19T01:23:07.862Z,0.00
2018-08-19T01:24:07.817Z,0.00
2018-08-19T01:25:07.790Z,0.00
2018-08-19T01:26:07.745Z,0.00
2018-08-19T01:27:07.723Z,0.00
2018-08-19T01:28:07.680Z,0.00
2018-08-19T01:29:07.634Z,0.00
2018-08-19T01:30:07.610Z,0.00
2018-08-19T01:31:07.578Z,0.00
2018-08-19T01:32:07.552Z,0.00
2018-08-19T01:33:07.504Z,0.00
2018-08-19T01:34:07.475Z,0.00
2018-08-19T01:35:07.432Z,0.00
2018-08-19T01:36:07.401Z,0.00
2018-08-19T01:37:07.364Z,0.00
2018-08-19T01:38:07.332Z,0.00
2018-08-19T01:39:07.293Z,0.00
2018-08-19T01:40:07.263Z,0.00
2018-08-19T01:41:07.232Z,0.00
2018-08-19T01:42:07.197Z,0.00
2018-08-19T01:43:07.151Z,0.00
2018-08-19T01:44:07.123Z,0.00
2018-08-19T01:45:07.085Z,0.00
2018-08-19T01:46:07.057Z,0.00
2018-08-19T01:47:07.016Z,0.00
2018-08-19T01:48:06.971Z,0.00
2018-08-19T01:49:06.949Z,0.00
2018-08-19T01:50:06.915Z,0.00
2018-08-19T01:51:06.866Z,0.00
2018-08-19T01:52:06.846Z,0.00
2018-08-19T01:53:06.802Z,0.00
2018-08-19T01:54:06.782Z,0.00
2018-08-19T01:55:06.728Z,0.00
2018-08-19T01:56:06.719Z,0.00
2018-08-19T01:57:06.660Z,0.00
2018-08-19T01:58:06.620Z,0.00
2018-08-19T01:59:08.566Z,0.00
2018-08-19T02:00:08.258Z,0.00
2018-08-19T02:01:07.724Z,0.00
2018-08-19T02:02:07.159Z,0.00
2018-08-19T02:03:09.606Z,0.00
2018-08-19T02:04:07.153Z,0.00
2018-08-19T02:05:06.848Z,0.00
2018-08-19T02:06:06.971Z,0.00
2018-08-19T02:07:09.255Z,0.00
2018-08-19T02:08:08.728Z,0.00
2018-08-19T02:09:06.672Z,0.00
2018-08-19T02:10:06.674Z,0.00
2018-08-19T02:11:09.721Z,0.00
2018-08-19T02:12:06.791Z,0.00
2018-08-19T02:13:08.218Z,0.00
2018-08-19T02:14:09.151Z,0.00
2018-08-19T02:15:07.356Z,0.00
2018-08-19T02:16:09.808Z,0.00
2018-08-19T02:17:09.259Z,0.00
2018-08-19T02:18:07.407Z,0.00
2018-08-19T02:19:06.577Z,0.00
2018-08-19T02:20:06.168Z,0.00
2018-08-19T02:21:06.006Z,0.00
2018-08-19T02:22:05.779Z,0.00
2018-08-19T02:23:05.768Z,0.00
2018-08-19T02:24:05.703Z,0.00
2018-08-19T02:25:05.668Z,0.00
2018-08-19T02:26:05.639Z,0.00
2018-08-19T02:27:05.594Z,0.00
2018-08-19T02:28:05.572Z,0.00
2018-08-19T02:29:05.531Z,0.00
2018-08-19T02:30:05.483Z,0.00
2018-08-19T02:31:05.479Z,0.00
2018-08-19T02:32:05.421Z,0.00
2018-08-19T02:33:05.384Z,0.00
2018-08-19T02:34:05.349Z,0.00
2018-08-19T02:35:05.319Z,0.00
2018-08-19T02:36:05.282Z,0.00
2018-08-19T02:37:05.241Z,0.00
2018-08-19T02:38:05.210Z,0.00
2018-08-19T02:39:05.166Z,0.00
2018-08-19T02:40:05.144Z,0.00
2018-08-19T02:41:05.106Z,0.00
2018-08-19T02:42:05.063Z,0.00
2018-08-19T02:43:05.030Z,0.00
2018-08-19T02:44:04.998Z,0.00
2018-08-19T02:45:04.960Z,0.00
2018-08-19T02:46:04.916Z,0.00
2018-08-19T02:47:04.888Z,0.00
2018-08-19T02:48:04.849Z,0.00
2018-08-19T02:49:04.822Z,0.00
2018-08-19T02:50:04.782Z,0.00
2018-08-19T02:51:04.740Z,0.00
2018-08-19T02:52:04.717Z,0.00
2018-08-19T02:53:04.670Z,0.00
2018-08-19T02:54:04.636Z,0.00
2018-08-19T02:55:04.615Z,0.00
2018-08-19T02:56:04.576Z,0.00
2018-08-19T02:57:04.534Z,0.00
2018-08-19T02:58:04.499Z,0.00
2018-08-19T02:59:04.483Z,0.00
2018-08-19T03:00:04.427Z,0.00
2018-08-19T03:01:04.387Z,0.00
2018-08-19T03:02:04.354Z,0.00
2018-08-19T03:03:04.327Z,0.00
2018-08-19T03:04:04.284Z,0.00
2018-08-19T03:05:04.264Z,0.00
2018-08-19T03:06:04.214Z,0.00
2018-08-19T03:07:04.173Z,0.00
2018-08-19T03:08:04.142Z,0.00
2018-08-19T03:09:04.103Z,0.00
2018-08-19T03:10:04.074Z,0.00
2018-08-19T03:11:04.028Z,0.00
2018-08-19T03:12:03.994Z,0.00
2018-08-19T03:13:03.960Z,0.00
2018-08-19T03:14:03.940Z,0.00
2018-08-19T03:15:03.929Z,0.00
2018-08-19T03:16:03.872Z,0.00
2018-08-19T03:17:03.828Z,0.00
2018-08-19T03:18:03.794Z,0.00
2018-08-19T03:19:03.770Z,0.00
2018-08-19T03:20:03.741Z,0.00
2018-08-19T03:21:03.690Z,0.00
2018-08-19T03:22:03.639Z,0.00
2018-08-19T03:23:03.617Z,0.00
2018-08-19T03:24:03.572Z,0.00
2018-08-19T03:25:03.574Z,0.00
2018-08-19T03:26:03.514Z,0.00
2018-08-19T03:27:03.476Z,0.00
2018-08-19T03:28:03.439Z,0.00
2018-08-19T03:29:03.405Z,0.00
2018-08-19T03:30:03.376Z,0.00
2018-08-19T03:31:03.329Z,0.00
2018-08-19T03:32:03.296Z,0.00
2018-08-19T03:33:03.271Z,0.00
2018-08-19T03:34:03.263Z,0.00
2018-08-19T03:35:03.209Z,0.00
2018-08-19T03:36:03.149Z,0.00
2018-08-19T03:37:03.105Z,0.00
2018-08-19T03:38:03.159Z,0.00
2018-08-19T03:39:03.058Z,0.00
2018-08-19T03:40:03.002Z,0.00
2018-08-19T03:41:02.979Z,0.00
2018-08-19T03:42:02.928Z,0.00
2018-08-19T03:43:02.889Z,0.00
2018-08-19T03:44:02.857Z,0.00
2018-08-19T03:45:02.832Z,0.00
2018-08-19T03:46:02.796Z,0.00
2018-08-19T03:47:02.767Z,0.00
2018-08-19T03:48:02.713Z,0.00
2018-08-19T03:49:02.687Z,0.00
2018-08-19T03:50:02.689Z,0.00
2018-08-19T03:51:02.633Z,0.00
2018-08-19T03:52:02.588Z,0.00
2018-08-19T03:53:02.603Z,0.00
2018-08-19T03:54:02.553Z,0.00
2018-08-19T03:55:02.492Z,0.00
2018-08-19T03:56:02.498Z,0.00
2018-08-19T03:57:02.419Z,0.00
2018-08-19T03:58:02.399Z,0.00
2018-08-19T03:59:02.315Z,0.00
2018-08-19T04:00:02.317Z,0.00
2018-08-19T04:01:02.262Z,0.00
2018-08-19T04:02:02.234Z,0.00
2018-08-19T04:03:02.187Z,0.00
2018-08-19T04:04:02.149Z,0.00
2018-08-19T04:05:02.118Z,0.00
2018-08-19T04:06:02.087Z,0.00
2018-08-19T04:07:02.076Z,0.00
2018-08-19T04:08:02.007Z,0.00
2018-08-19T04:09:01.971Z,0.00
2018-08-19T04:10:01.929Z,0.00
2018-08-19T04:11:01.902Z,0.00
2018-08-19T04:12:01.877Z,0.00
2018-08-19T04:13:01.849Z,0.00
2018-08-19T04:14:01.810Z,0.00
2018-08-19T04:15:01.771Z,0.00
2018-08-19T04:16:01.738Z,0.00
2018-08-19T04:17:01.722Z,0.00
2018-08-19T04:18:01.661Z,0.00
2018-08-19T04:19:01.620Z,0.00
2018-08-19T04:20:01.581Z,0.00
2018-08-19T04:21:01.549Z,0.00
2018-08-19T04:22:01.500Z,0.00
2018-08-19T04:23:01.474Z,0.00
2018-08-19T04:24:01.444Z,0.00
2018-08-19T04:25:01.395Z,0.00
2018-08-19T04:26:01.367Z,0.00
2018-08-19T04:27:01.374Z,0.00
2018-08-19T04:28:01.311Z,0.00
2018-08-19T04:29:01.252Z,0.00
2018-08-19T04:30:01.248Z,0.00
2018-08-19T04:31:01.177Z,0.00
2018-08-19T04:32:01.146Z,0.00
2018-08-19T04:33:01.126Z,0.00
2018-08-19T04:34:01.083Z,0.00
2018-08-19T04:35:01.053Z,0.00
2018-08-19T04:36:01.032Z,0.00
2018-08-19T04:37:00.975Z,0.00
2018-08-19T04:38:00.941Z,0.00
2018-08-19T04:39:00.908Z,0.00
2018-08-19T04:40:00.865Z,0.00
2018-08-19T04:41:00.848Z,0.00
2018-08-19T04:42:00.809Z,0.00
2018-08-19T04:43:00.784Z,0.00
2018-08-19T04:44:00.753Z,0.00
2018-08-19T04:45:00.688Z,0.00
2018-08-19T04:46:00.674Z,0.00
2018-08-19T04:47:00.621Z,0.00
2018-08-19T04:48:00.590Z,0.00
2018-08-19T04:49:00.556Z,0.00
2018-08-19T04:50:00.520Z,0.00
2018-08-19T04:51:00.482Z,0.00
2018-08-19T04:52:00.435Z,0.00
2018-08-19T04:53:00.420Z,0.00
2018-08-19T04:54:00.392Z,0.00
2018-08-19T04:55:00.368Z,0.00
2018-08-19T04:56:00.316Z,0.00
2018-08-19T04:57:00.354Z,0.00
2018-08-19T04:58:00.232Z,0.00
2018-08-19T04:59:00.193Z,0.00
2018-08-19T05:00:00.168Z,0.00
2018-08-19T05:01:00.133Z,0.00
2018-08-19T05:02:00.094Z,0.00
2018-08-19T05:03:00.071Z,0.00
2018-08-19T05:04:00.023Z,0.00
2018-08-19T05:04:59.996Z,0.00
2018-08-19T05:05:59.967Z,0.00
2018-08-19T05:06:59.928Z,0.00
2018-08-19T05:07:59.884Z,0.00
2018-08-19T05:08:59.837Z,0.00
2018-08-19T05:09:59.820Z,0.00
2018-08-19T05:10:59.782Z,0.00
2018-08-19T05:11:59.766Z,0.00
2018-08-19T05:12:59.698Z,0.00
2018-08-19T05:13:59.672Z,0.00
2018-08-19T05:14:59.640Z,0.00
2018-08-19T05:15:59.598Z,0.00
2018-08-19T05:16:59.571Z,0.00
2018-08-19T05:17:59.531Z,0.00
2018-08-19T05:18:59.485Z,0.00
2018-08-19T05:19:59.489Z,0.00
2018-08-19T05:20:59.438Z,0.00
2018-08-19T05:21:59.410Z,0.00
2018-08-19T05:22:59.619Z,0.00
2018-08-19T05:23:59.313Z,0.00
2018-08-19T05:24:59.290Z,0.00
2018-08-19T05:25:59.259Z,0.00
2018-08-19T05:26:59.231Z,0.00
2018-08-19T05:27:59.198Z,0.00
2018-08-19T05:28:59.152Z,0.00
2018-08-19T05:29:59.205Z,0.00
2018-08-19T05:30:59.081Z,0.00
2018-08-19T05:31:59.051Z,0.00
2018-08-19T05:32:59.008Z,0.00
2018-08-19T05:33:58.976Z,0.00
2018-08-19T05:34:58.956Z,0.00
2018-08-19T05:35:58.927Z,0.00
2018-08-19T05:36:58.874Z,0.00
2018-08-19T05:37:58.897Z,0.00
2018-08-19T05:38:58.802Z,0.00
2018-08-19T05:39:59.291Z,0.00
2018-08-19T05:40:58.754Z,0.00
2018-08-19T05:41:58.712Z,0.00
2018-08-19T05:42:58.699Z,0.00
2018-08-19T05:43:58.641Z,0.00
2018-08-19T05:44:58.607Z,0.00
2018-08-19T05:45:58.570Z,0.00
2018-08-19T05:46:58.579Z,0.00
2018-08-19T05:47:58.514Z,0.00
2018-08-19T05:48:58.460Z,0.00
2018-08-19T05:49:58.431Z,0.00
2018-08-19T05:50:58.397Z,0.00
2018-08-19T05:51:58.349Z,0.00
2018-08-19T05:52:58.336Z,0.00
2018-08-19T05:53:58.339Z,0.00
2018-08-19T05:54:58.268Z,0.00
2018-08-19T05:55:58.228Z,0.00
2018-08-19T05:57:00.871Z,0.00
2018-08-19T05:57:58.170Z,0.00
2018-08-19T05:58:58.140Z,0.00
2018-08-19T05:59:58.083Z,0.00
2018-08-19T06:00:58.112Z,0.00
2018-08-19T06:01:58.027Z,0.00
2018-08-19T06:02:57.998Z,0.00
2018-08-19T06:03:57.967Z,0.00
2018-08-19T06:04:57.929Z,0.00
2018-08-19T06:05:57.896Z,2.49
2018-08-19T06:06:57.910Z,0.00
2018-08-19T06:07:57.862Z,0.00
2018-08-19T06:08:57.807Z,0.00
2018-08-19T06:09:57.778Z,0.00
2018-08-19T06:10:57.742Z,0.00
2018-08-19T06:11:57.711Z,0.00
2018-08-19T06:12:57.680Z,0.00
2018-08-19T06:13:57.625Z,0.00
2018-08-19T06:14:57.610Z,3.55
2018-08-19T06:15:57.672Z,3.16
2018-08-19T06:16:57.544Z,0.29
2018-08-19T06:17:57.500Z,0.00
2018-08-19T06:18:57.472Z,0.00
2018-08-19T06:19:57.425Z,0.00
2018-08-19T06:20:57.404Z,0.00
2018-08-19T06:21:57.388Z,0.00
2018-08-19T06:22:57.335Z,0.00
2018-08-19T06:23:57.311Z,0.00
2018-08-19T06:24:57.279Z,0.00
2018-08-19T06:25:57.248Z,0.00
2018-08-19T06:26:57.249Z,5.66
2018-08-19T06:27:57.173Z,1.43
2018-08-19T06:28:57.167Z,2.59
2018-08-19T06:29:57.112Z,3.16
2018-08-19T06:30:57.124Z,0.67
2018-08-19T06:31:57.061Z,0.00
2018-08-19T06:32:57.007Z,0.00
2018-08-19T06:33:57.009Z,0.00
2018-08-19T06:34:56.988Z,0.00
2018-08-19T06:35:56.933Z,0.00
2018-08-19T06:36:56.882Z,0.00
2018-08-19T06:37:56.853Z,0.00
2018-08-19T06:38:56.826Z,0.00
2018-08-19T06:39:56.780Z,0.00
2018-08-19T06:40:56.761Z,0.00
2018-08-19T06:41:56.736Z,0.00
2018-08-19T06:42:56.689Z,6.73
2018-08-19T06:43:56.676Z,11.05
2018-08-19T06:44:56.637Z,8.17
2018-08-19T06:45:56.600Z,2.98
2018-08-19T06:46:56.564Z,6.92
2018-08-19T06:47:56.541Z,14.80
2018-08-19T06:48:56.513Z,8.17
2018-08-19T06:49:56.465Z,6.73
2018-08-19T06:50:56.445Z,3.36
2018-08-19T06:51:56.401Z,2.78
2018-08-19T06:52:56.397Z,6.63
2018-08-19T06:53:56.355Z,7.69
2018-08-19T06:54:56.307Z,8.36
2018-08-19T06:55:56.292Z,16.35
2018-08-19T06:56:56.257Z,25.58
2018-08-19T06:57:56.236Z,29.62
2018-08-19T06:58:56.185Z,28.37
2018-08-19T06:59:56.164Z,30.02
2018-08-19T07:00:56.129Z,31.78
2018-08-19T07:01:56.095Z,30.66
2018-08-19T07:02:56.064Z,92.74
2018-08-19T07:03:56.084Z,80.82
2018-08-19T07:04:56.007Z,99.99
2018-08-19T07:05:55.991Z,99.99
2018-08-19T07:06:56.098Z,99.99
2018-08-19T07:07:55.917Z,99.99
2018-08-19T07:08:55.895Z,99.99
2018-08-19T07:09:55.869Z,99.99
2018-08-19T07:10:55.842Z,99.99
2018-08-19T07:11:55.812Z,99.99
2018-08-19T07:12:55.789Z,99.99
2018-08-19T07:13:55.744Z,99.99
2018-08-19T07:14:55.729Z,99.99
2018-08-19T07:15:55.691Z,99.99
2018-08-19T07:16:55.704Z,99.99
2018-08-19T07:17:55.644Z,99.99
2018-08-19T07:18:55.615Z,99.99
2018-08-19T07:19:55.593Z,99.99
2018-08-19T07:20:55.583Z,99.99
2018-08-19T07:21:55.565Z,99.99
2018-08-19T07:22:55.520Z,99.99
2018-08-19T07:23:55.580Z,99.99
2018-08-19T07:24:55.461Z,99.99
2018-08-19T07:25:55.448Z,99.99
2018-08-19T07:26:55.423Z,99.99
2018-08-19T07:27:55.404Z,99.99
2018-08-19T07:28:55.390Z,99.36
2018-08-19T07:29:55.360Z,99.99
2018-08-19T07:30:55.335Z,99.99
2018-08-19T07:31:55.329Z,82.40
2018-08-19T07:32:55.282Z,76.54
2018-08-19T07:33:55.258Z,80.17
2018-08-19T07:34:55.256Z,75.12
2018-08-19T07:35:55.220Z,77.25
2018-08-19T07:36:55.271Z,79.00
2018-08-19T07:37:55.177Z,73.79
2018-08-19T07:38:55.152Z,72.04
2018-08-19T07:39:55.139Z,72.04
2018-08-19T07:40:55.120Z,76.90
2018-08-19T07:41:55.098Z,71.52
2018-08-19T07:42:55.082Z,73.66
2018-08-19T07:43:55.120Z,73.46
2018-08-19T07:44:55.020Z,73.50
2018-08-19T07:45:55.032Z,71.88
2018-08-19T07:46:54.982Z,70.62
2018-08-19T07:47:54.968Z,67.83
2018-08-19T07:48:54.947Z,70.10
2018-08-19T07:49:54.929Z,68.09
2018-08-19T07:50:54.909Z,66.41
2018-08-19T07:51:54.917Z,62.31
2018-08-19T07:52:54.867Z,63.80
2018-08-19T07:53:54.844Z,62.76
2018-08-19T07:54:54.823Z,61.49
2018-08-19T07:55:54.826Z,60.35
2018-08-19T07:56:54.785Z,59.30
2018-08-19T07:57:54.781Z,60.28
2018-08-19T07:58:54.745Z,59.69
2018-08-19T07:59:54.726Z,60.08
2018-08-19T08:00:54.704Z,59.86
2018-08-19T08:01:54.701Z,59.77
2018-08-19T08:02:54.677Z,59.59
2018-08-19T08:03:54.675Z,58.91
2018-08-19T08:04:54.638Z,61.29
2018-08-19T08:05:54.626Z,58.28
2018-08-19T08:06:54.599Z,57.48
2018-08-19T08:07:54.578Z,59.23
2018-08-19T08:08:54.787Z,59.43
2018-08-19T08:09:54.569Z,57.50
2018-08-19T08:10:54.569Z,57.50
2018-08-19T08:11:54.687Z,56.52
2018-08-19T08:12:54.489Z,56.72
2018-08-19T08:13:54.536Z,57.31
2018-08-19T08:14:54.447Z,57.79
2018-08-19T08:15:54.453Z,59.04
2018-08-19T08:16:54.412Z,58.55
2018-08-19T08:17:54.376Z,59.40
2018-08-19T08:18:54.380Z,58.45
2018-08-19T08:19:54.349Z,58.03
2018-08-19T08:20:54.362Z,58.84
2018-08-19T08:21:54.310Z,58.26
2018-08-19T08:22:54.377Z,56.82
2018-08-19T08:23:54.295Z,57.97
2018-08-19T08:24:54.260Z,58.06
2018-08-19T08:25:54.334Z,58.23
2018-08-19T08:26:54.265Z,59.67
2018-08-19T08:27:54.242Z,60.03
2018-08-19T08:28:54.184Z,59.77
2018-08-19T08:29:54.190Z,61.04
2018-08-19T08:30:54.165Z,61.91
2018-08-19T08:31:54.130Z,59.79
2018-08-19T08:32:54.142Z,59.47
2018-08-19T08:33:54.101Z,62.21
2018-08-19T08:34:54.077Z,61.35
2018-08-19T08:35:54.088Z,59.79
2018-08-19T08:36:54.036Z,58.72
2018-08-19T08:37:54.148Z,57.97
2018-08-19T08:38:54.006Z,57.67
2018-08-19T08:39:53.978Z,59.53
2018-08-19T08:40:53.968Z,57.53
2018-08-19T08:41:53.962Z,56.26
2018-08-19T08:42:53.915Z,54.94
2018-08-19T08:43:53.902Z,54.06
2018-08-19T08:44:53.922Z,55.36
2018-08-19T08:45:53.951Z,55.33
2018-08-19T08:46:53.852Z,53.96
2018-08-19T08:47:53.914Z,54.36
2018-08-19T08:48:53.845Z,54.77
2018-08-19T08:49:53.849Z,55.07
2018-08-19T08:50:53.832Z,54.97
2018-08-19T08:51:53.754Z,55.19
2018-08-19T08:52:53.787Z,53.82
2018-08-19T08:53:53.724Z,55.19
2018-08-19T08:54:53.722Z,54.46
2018-08-19T08:55:53.703Z,56.15
2018-08-19T08:56:53.705Z,55.16
2018-08-19T08:57:53.658Z,54.97
2018-08-19T08:58:53.618Z,56.65
2018-08-19T08:59:53.641Z,55.87
2018-08-19T09:00:53.581Z,56.75
2018-08-19T09:01:53.690Z,56.41
2018-08-19T09:02:53.620Z,55.24
2018-08-19T09:03:53.620Z,54.36
2018-08-19T09:04:53.543Z,54.72
2018-08-19T09:05:53.512Z,56.95
2018-08-19T09:06:53.525Z,58.80
2018-08-19T09:07:53.580Z,57.73
2018-08-19T09:08:53.468Z,58.38
2018-08-19T09:09:53.419Z,59.30
2018-08-19T09:10:53.455Z,62.23
2018-08-19T09:11:53.415Z,60.38
2018-08-19T09:12:53.399Z,61.55
2018-08-19T09:13:53.384Z,59.14
2018-08-19T09:14:53.374Z,58.06
2018-08-19T09:15:53.349Z,58.48
2018-08-19T09:16:53.309Z,59.39
2018-08-19T09:17:53.331Z,58.90
2018-08-19T09:18:53.412Z,58.98
2018-08-19T09:19:53.304Z,59.54
2018-08-19T09:20:53.263Z,61.52
2018-08-19T09:21:53.239Z,60.41
2018-08-19T09:22:53.344Z,59.49
2018-08-19T09:23:53.224Z,56.46
2018-08-19T09:24:53.213Z,57.70
2018-08-19T09:25:53.159Z,58.38
2018-08-19T09:26:53.146Z,59.46
2018-08-19T09:27:53.123Z,59.56
2018-08-19T09:28:53.101Z,57.92
2018-08-19T09:29:53.092Z,56.87
2018-08-19T09:30:53.092Z,56.73
2018-08-19T09:31:53.061Z,58.40
2018-08-19T09:32:53.075Z,54.28
2018-08-19T09:33:53.017Z,54.65
2018-08-19T09:34:53.016Z,56.48
2018-08-19T09:35:53.014Z,56.75
2018-08-19T09:36:53.025Z,57.38
2018-08-19T09:37:52.962Z,57.48
2018-08-19T09:38:52.948Z,56.56
2018-08-19T09:39:52.954Z,55.82
2018-08-19T09:40:53.027Z,54.94
2018-08-19T09:41:52.892Z,53.86
2018-08-19T09:42:52.881Z,54.82
2018-08-19T09:43:52.876Z,56.95
2018-08-19T09:44:52.974Z,57.82
2018-08-19T09:45:52.865Z,59.69
2018-08-19T09:46:52.915Z,56.31
2018-08-19T09:47:52.978Z,55.95
2018-08-19T09:48:52.786Z,57.10
2018-08-19T09:49:52.853Z,56.31
2018-08-19T09:50:52.759Z,55.36
2018-08-19T09:51:52.730Z,54.55
2018-08-19T09:52:52.711Z,55.07
2018-08-19T09:53:52.700Z,54.77
2018-08-19T09:54:52.675Z,56.59
2018-08-19T09:55:52.656Z,54.19
2018-08-19T09:56:52.660Z,56.29
2018-08-19T09:57:52.676Z,56.16
2018-08-19T09:58:52.635Z,57.24
2018-08-19T09:59:52.601Z,54.91
2018-08-19T10:00:52.590Z,52.98
2018-08-19T10:01:52.567Z,52.00
2018-08-19T10:02:52.545Z,54.36
2018-08-19T10:03:52.508Z,54.19
2018-08-19T10:04:52.494Z,52.35
2018-08-19T10:05:52.476Z,49.04
2018-08-19T10:06:52.491Z,49.95
2018-08-19T10:07:52.523Z,48.74
2018-08-19T10:08:52.436Z,52.25
2018-08-19T10:09:52.423Z,51.69
2018-08-19T10:10:52.404Z,50.61
2018-08-19T10:11:52.382Z,48.45
2018-08-19T10:12:52.358Z,48.85
2018-08-19T10:13:52.392Z,48.80
2018-08-19T10:14:52.359Z,49.09
2018-08-19T10:15:52.325Z,49.97
2018-08-19T10:16:52.307Z,50.32
2018-08-19T10:17:52.280Z,49.80
2018-08-19T10:18:52.273Z,48.99
2018-08-19T10:19:52.267Z,50.24
2018-08-19T10:20:52.260Z,52.42
2018-08-19T10:21:52.274Z,52.15
2018-08-19T10:22:52.266Z,50.71
2018-08-19T10:23:52.191Z,50.02
2018-08-19T10:24:52.278Z,50.63
2018-08-19T10:25:52.178Z,52.40
2018-08-19T10:26:52.133Z,50.29
2018-08-19T10:27:52.175Z,52.64
2018-08-19T10:28:52.485Z,53.33
2018-08-19T10:29:52.078Z,51.66
2018-08-19T10:30:52.101Z,52.89
2018-08-19T10:31:52.050Z,51.61
2018-08-19T10:32:52.079Z,51.64
2018-08-19T10:33:52.005Z,49.90
2018-08-19T10:34:51.985Z,49.38
2018-08-19T10:35:51.978Z,51.56
2018-08-19T10:36:51.968Z,47.40
2018-08-19T10:37:51.923Z,45.05
2018-08-19T10:38:51.912Z,44.27
2018-08-19T10:39:51.941Z,43.58
2018-08-19T10:40:51.889Z,44.38
2018-08-19T10:41:51.864Z,42.48
2018-08-19T10:42:51.831Z,44.34
2018-08-19T10:43:51.821Z,43.76
2018-08-19T10:44:51.828Z,43.58
2018-08-19T10:45:51.992Z,42.13
2018-08-19T10:46:51.984Z,42.55
2018-08-19T10:47:51.764Z,43.55
2018-08-19T10:48:51.766Z,42.00
2018-08-19T10:49:51.728Z,41.88
2018-08-19T10:50:51.700Z,42.58
2018-08-19T10:51:51.681Z,42.55
2018-08-19T10:52:51.707Z,44.09
2018-08-19T10:53:51.683Z,44.68
2018-08-19T10:54:51.631Z,43.98
2018-08-19T10:55:51.616Z,45.47
2018-08-19T10:56:51.610Z,44.78
2018-08-19T10:57:51.622Z,44.27
2018-08-19T10:58:51.568Z,44.85
2018-08-19T10:59:51.643Z,40.94
2018-08-19T11:00:51.576Z,39.82
2018-08-19T11:01:51.573Z,42.35
2018-08-19T11:02:51.503Z,42.29
2018-08-19T11:03:51.480Z,41.21
2018-08-19T11:04:51.478Z,40.25
2018-08-19T11:05:51.452Z,42.65
2018-08-19T11:06:51.467Z,39.72
2018-08-19T11:07:51.447Z,39.70
2018-08-19T11:08:51.516Z,40.60
2018-08-19T11:09:51.431Z,42.71
2018-08-19T11:10:51.370Z,43.77
2018-08-19T11:11:51.380Z,44.01
2018-08-19T11:12:51.319Z,44.44
2018-08-19T11:13:51.325Z,43.98
2018-08-19T11:14:52.010Z,43.23
2018-08-19T11:15:51.260Z,41.27
2018-08-19T11:16:51.251Z,42.35
2018-08-19T11:17:51.253Z,42.02
2018-08-19T11:18:51.217Z,40.95
2018-08-19T11:19:51.267Z,41.03
2018-08-19T11:20:51.224Z,42.21
2018-08-19T11:21:51.183Z,41.31
2018-08-19T11:22:51.151Z,40.84
2018-08-19T11:23:51.115Z,42.31
2018-08-19T11:24:51.148Z,42.41
2018-08-19T11:25:51.076Z,40.94
2018-08-19T11:26:51.172Z,41.09
2018-08-19T11:27:51.085Z,42.99
2018-08-19T11:28:51.073Z,42.33
2018-08-19T11:29:51.050Z,42.13
2018-08-19T11:30:50.998Z,42.52
2018-08-19T11:31:51.020Z,41.05
2018-08-19T11:32:51.004Z,40.94
2018-08-19T11:33:51.024Z,41.42
2018-08-19T11:34:50.955Z,40.74
2018-08-19T11:35:50.989Z,44.07
2018-08-19T11:36:50.905Z,41.60
2018-08-19T11:37:50.979Z,43.05
2018-08-19T11:38:51.015Z,44.32
2018-08-19T11:39:50.885Z,42.93
2018-08-19T11:40:50.853Z,43.52
2018-08-19T11:41:50.806Z,45.18
2018-08-19T11:42:50.791Z,43.42
2018-08-19T11:43:50.802Z,46.47
2018-08-19T11:44:50.860Z,42.36
2018-08-19T11:45:50.775Z,42.27
2018-08-19T11:46:50.711Z,43.66
2018-08-19T11:47:50.694Z,42.21
2018-08-19T11:48:50.726Z,42.62
2018-08-19T11:49:50.665Z,40.55
2018-08-19T11:50:50.629Z,42.50
2018-08-19T11:51:50.659Z,42.02
2018-08-19T11:52:50.592Z,42.90
2018-08-19T11:53:50.598Z,45.27
2018-08-19T11:54:50.589Z,42.31
2018-08-19T11:55:50.602Z,42.11
2018-08-19T11:56:50.584Z,43.09
2018-08-19T11:57:50.530Z,43.98
2018-08-19T11:58:50.606Z,42.50
2018-08-19T11:59:50.588Z,43.09
2018-08-19T12:00:50.478Z,42.90
2018-08-19T12:01:50.424Z,42.48
2018-08-19T12:02:50.467Z,42.29
2018-08-19T12:03:50.487Z,42.58
2018-08-19T12:04:50.438Z,42.02
2018-08-19T12:05:50.401Z,42.21
2018-08-19T12:06:50.357Z,44.98
2018-08-19T12:07:50.328Z,41.27
2018-08-19T12:08:50.405Z,41.17
2018-08-19T12:09:50.283Z,42.55
2018-08-19T12:10:50.296Z,42.50
2018-08-19T12:11:50.297Z,42.68
2018-08-19T12:12:50.246Z,44.81
2018-08-19T12:13:50.222Z,42.56
2018-08-19T12:14:50.208Z,44.32
2018-08-19T12:15:50.182Z,45.72
2018-08-19T12:16:50.223Z,44.76
2018-08-19T12:17:50.204Z,45.91
2018-08-19T12:18:50.141Z,44.81
2018-08-19T12:19:50.236Z,44.91
2018-08-19T12:20:50.122Z,45.10
2018-08-19T12:21:50.080Z,45.59
2018-08-19T12:22:50.068Z,45.81
2018-08-19T12:23:50.043Z,47.38
2018-08-19T12:24:50.049Z,46.81
2018-08-19T12:25:50.016Z,45.54
2018-08-19T12:26:49.986Z,44.34
2018-08-19T12:27:50.043Z,44.07
2018-08-19T12:28:49.934Z,45.44
2018-08-19T12:29:49.927Z,45.25
2018-08-19T12:30:49.914Z,44.38
2018-08-19T12:31:49.914Z,43.60
2018-08-19T12:32:50.071Z,42.43
2018-08-19T12:33:49.885Z,44.37
2018-08-19T12:34:49.891Z,45.44
2018-08-19T12:35:50.100Z,46.52
2018-08-19T12:36:49.795Z,47.20
2018-08-19T12:37:50.542Z,46.74
2018-08-19T12:38:49.799Z,44.95
2018-08-19T12:39:49.745Z,44.93
2018-08-19T12:40:49.781Z,45.83
2018-08-19T12:41:49.732Z,46.13
2018-08-19T12:42:49.700Z,47.01
2018-08-19T12:43:49.717Z,44.56
2018-08-19T12:44:49.761Z,44.95
2018-08-19T12:45:49.641Z,45.32
2018-08-19T12:46:49.613Z,44.03
2018-08-19T12:47:49.651Z,45.28
2018-08-19T12:48:49.634Z,46.65
2018-08-19T12:49:49.657Z,46.26
2018-08-19T12:50:49.564Z,49.80
2018-08-19T12:51:49.539Z,45.15
2018-08-19T12:52:49.583Z,45.54
2018-08-19T12:53:49.507Z,46.13
2018-08-19T12:54:49.482Z,44.85
2018-08-19T12:55:49.497Z,44.03
2018-08-19T12:56:49.480Z,45.50
2018-08-19T12:57:49.413Z,44.81
2018-08-19T12:58:49.422Z,46.37
2018-08-19T12:59:49.387Z,46.13
2018-08-19T13:00:49.405Z,43.85
2018-08-19T13:01:49.405Z,44.85
2018-08-19T13:02:49.356Z,43.58
2018-08-19T13:03:49.469Z,44.76
2018-08-19T13:04:49.335Z,43.88
2018-08-19T13:05:49.289Z,44.27